sensor_id;sensor_type;location;lat;lon;timestamp;P1;durP1;ratioP1;P2;durP2;ratioP2
43226;SDS011;28839;52.404;9.808;2023-08-31T00:05:36;19.83;;;17.23;;
43226;SDS011;28839;52.404;9.808;2023-08-31T00:12:32;20.02;;;17.33;;
43226;SDS011;28839;52.404;9.808;2023-08-31T00:19:27;23.60;;;16.60;;
43226;SDS011;28839;52.404;9.808;2023-08-31T00:26:21;21.70;;;16.90;;
43226;SDS011;28839;52.404;9.808;2023-08-31T00:33:16;18.87;;;17.07;;
43226;SDS011;28839;52.404;9.808;2023-08-31T00:47:06;17.55;;;15.75;;
43226;SDS011;28839;52.404;9.808;2023-08-31T00:54:00;18.67;;;15.27;;
43226;SDS011;28839;52.404;9.808;2023-08-31T01:01:00;21.15;;;15.95;;
43226;SDS011;28839;52.404;9.808;2023-08-31T01:08:03;22.20;;;15.93;;
43226;SDS011;28839;52.404;9.808;2023-08-31T01:15:06;17.65;;;14.85;;
43226;SDS011;28839;52.404;9.808;2023-08-31T01:22:05;20.37;;;15.10;;
43226;SDS011;28839;52.404;9.808;2023-08-31T01:29:06;18.50;;;14.63;;
43226;SDS011;28839;52.404;9.808;2023-08-31T01:36:00;16.37;;;12.63;;
43226;SDS011;28839;52.404;9.808;2023-08-31T01:43:00;16.55;;;13.55;;
43226;SDS011;28839;52.404;9.808;2023-08-31T01:49:57;16.75;;;13.27;;
43226;SDS011;28839;52.404;9.808;2023-08-31T01:56:51;19.80;;;13.30;;
43226;SDS011;28839;52.404;9.808;2023-08-31T02:03:45;19.20;;;13.43;;
43226;SDS011;28839;52.404;9.808;2023-08-31T02:10:40;21.70;;;13.40;;
43226;SDS011;28839;52.404;9.808;2023-08-31T02:17:34;20.10;;;14.73;;
43226;SDS011;28839;52.404;9.808;2023-08-31T02:24:28;20.20;;;15.27;;
43226;SDS011;28839;52.404;9.808;2023-08-31T02:31:23;25.07;;;15.47;;
43226;SDS011;28839;52.404;9.808;2023-08-31T02:38:17;23.80;;;17.83;;
43226;SDS011;28839;52.404;9.808;2023-08-31T02:45:11;19.83;;;16.53;;
43226;SDS011;28839;52.404;9.808;2023-08-31T02:52:06;19.60;;;17.07;;
43226;SDS011;28839;52.404;9.808;2023-08-31T02:59:00;20.83;;;16.45;;
43226;SDS011;28839;52.404;9.808;2023-08-31T03:05:54;22.20;;;15.83;;
43226;SDS011;28839;52.404;9.808;2023-08-31T03:19:43;19.58;;;15.05;;
43226;SDS011;28839;52.404;9.808;2023-08-31T03:26:37;21.60;;;15.73;;
43226;SDS011;28839;52.404;9.808;2023-08-31T03:33:32;25.83;;;15.50;;
43226;SDS011;28839;52.404;9.808;2023-08-31T03:40:26;19.98;;;14.68;;
43226;SDS011;28839;52.404;9.808;2023-08-31T03:47:20;18.17;;;14.03;;
43226;SDS011;28839;52.404;9.808;2023-08-31T03:54:15;23.70;;;15.60;;
43226;SDS011;28839;52.404;9.808;2023-08-31T04:01:09;19.87;;;14.32;;
43226;SDS011;28839;52.404;9.808;2023-08-31T04:08:03;22.03;;;15.07;;
43226;SDS011;28839;52.404;9.808;2023-08-31T04:15:01;19.12;;;14.02;;
43226;SDS011;28839;52.404;9.808;2023-08-31T04:21:56;21.80;;;13.55;;
43226;SDS011;28839;52.404;9.808;2023-08-31T04:28:50;17.37;;;12.60;;
43226;SDS011;28839;52.404;9.808;2023-08-31T04:35:46;19.90;;;13.23;;
43226;SDS011;28839;52.404;9.808;2023-08-31T04:42:39;18.62;;;13.30;;
43226;SDS011;28839;52.404;9.808;2023-08-31T04:49:33;19.93;;;12.10;;
43226;SDS011;28839;52.404;9.808;2023-08-31T04:56:29;15.00;;;12.07;;
43226;SDS011;28839;52.404;9.808;2023-08-31T05:03:24;18.37;;;12.30;;
43226;SDS011;28839;52.404;9.808;2023-08-31T05:10:18;19.63;;;13.23;;
43226;SDS011;28839;52.404;9.808;2023-08-31T05:17:13;26.13;;;14.37;;
43226;SDS011;28839;52.404;9.808;2023-08-31T05:24:07;18.37;;;14.60;;
43226;SDS011;28839;52.404;9.808;2023-08-31T05:31:01;19.17;;;15.63;;
43226;SDS011;28839;52.404;9.808;2023-08-31T05:37:57;21.15;;;15.75;;
43226;SDS011;28839;52.404;9.808;2023-08-31T05:44:50;23.65;;;17.08;;
43226;SDS011;28839;52.404;9.808;2023-08-31T05:51:44;31.33;;;19.07;;
43226;SDS011;28839;52.404;9.808;2023-08-31T05:58:39;24.73;;;19.17;;
43226;SDS011;28839;52.404;9.808;2023-08-31T06:05:33;23.48;;;19.25;;
43226;SDS011;28839;52.404;9.808;2023-08-31T06:12:27;20.93;;;17.33;;
43226;SDS011;28839;52.404;9.808;2023-08-31T06:19:22;22.07;;;18.40;;
43226;SDS011;28839;52.404;9.808;2023-08-31T06:26:16;20.92;;;17.17;;
43226;SDS011;28839;52.404;9.808;2023-08-31T06:33:10;23.60;;;19.60;;
43226;SDS011;28839;52.404;9.808;2023-08-31T06:40:06;20.60;;;18.43;;
43226;SDS011;28839;52.404;9.808;2023-08-31T06:47:01;23.65;;;21.05;;
43226;SDS011;28839;52.404;9.808;2023-08-31T07:00:55;25.75;;;22.98;;
43226;SDS011;28839;52.404;9.808;2023-08-31T07:07:49;25.37;;;22.67;;
43226;SDS011;28839;52.404;9.808;2023-08-31T07:14:43;25.67;;;23.07;;
43226;SDS011;28839;52.404;9.808;2023-08-31T07:21:38;24.87;;;22.17;;
43226;SDS011;28839;52.404;9.808;2023-08-31T07:28:32;22.62;;;20.33;;
43226;SDS011;28839;52.404;9.808;2023-08-31T07:35:26;21.83;;;19.52;;
43226;SDS011;28839;52.404;9.808;2023-08-31T07:42:21;21.70;;;18.40;;
43226;SDS011;28839;52.404;9.808;2023-08-31T07:49:15;16.02;;;14.35;;
43226;SDS011;28839;52.404;9.808;2023-08-31T07:56:08;18.03;;;14.37;;
43226;SDS011;28839;52.404;9.808;2023-08-31T08:03:04;15.63;;;13.97;;
43226;SDS011;28839;52.404;9.808;2023-08-31T08:09:58;15.98;;;13.25;;
43226;SDS011;28839;52.404;9.808;2023-08-31T08:16:52;15.30;;;12.45;;
43226;SDS011;28839;52.404;9.808;2023-08-31T08:23:48;12.20;;;10.83;;
43226;SDS011;28839;52.404;9.808;2023-08-31T08:30:43;11.82;;;9.57;;
43226;SDS011;28839;52.404;9.808;2023-08-31T08:37:36;10.30;;;9.10;;
43226;SDS011;28839;52.404;9.808;2023-08-31T08:44:32;11.77;;;9.40;;
43226;SDS011;28839;52.404;9.808;2023-08-31T08:51:29;9.65;;;8.38;;
43226;SDS011;28839;52.404;9.808;2023-08-31T08:58:23;8.82;;;7.15;;
43226;SDS011;28839;52.404;9.808;2023-08-31T09:05:18;10.43;;;7.63;;
43226;SDS011;28839;52.404;9.808;2023-08-31T09:12:12;8.93;;;8.13;;
43226;SDS011;28839;52.404;9.808;2023-08-31T09:19:17;10.63;;;8.53;;
43226;SDS011;28839;52.404;9.808;2023-08-31T09:26:12;10.77;;;8.35;;
43226;SDS011;28839;52.404;9.808;2023-08-31T09:33:07;10.48;;;7.65;;
43226;SDS011;28839;52.404;9.808;2023-08-31T09:40:02;8.75;;;7.00;;
43226;SDS011;28839;52.404;9.808;2023-08-31T09:53:51;8.15;;;7.20;;
43226;SDS011;28839;52.404;9.808;2023-08-31T10:00:49;8.77;;;6.78;;
43226;SDS011;28839;52.404;9.808;2023-08-31T10:07:45;18.17;;;6.50;;
43226;SDS011;28839;52.404;9.808;2023-08-31T10:14:39;7.32;;;6.70;;
43226;SDS011;28839;52.404;9.808;2023-08-31T10:28:29;9.23;;;7.18;;
43226;SDS011;28839;52.404;9.808;2023-08-31T10:35:40;8.75;;;7.30;;
43226;SDS011;28839;52.404;9.808;2023-08-31T10:42:41;7.18;;;6.37;;
43226;SDS011;28839;52.404;9.808;2023-08-31T10:49:37;7.55;;;6.30;;
43226;SDS011;28839;52.404;9.808;2023-08-31T10:56:31;6.55;;;4.97;;
43226;SDS011;28839;52.404;9.808;2023-08-31T11:03:24;7.82;;;5.80;;
43226;SDS011;28839;52.404;9.808;2023-08-31T11:10:21;6.97;;;5.12;;
43226;SDS011;28839;52.404;9.808;2023-08-31T11:17:15;4.47;;;3.90;;
43226;SDS011;28839;52.404;9.808;2023-08-31T11:24:09;8.40;;;4.25;;
43226;SDS011;28839;52.404;9.808;2023-08-31T11:31:05;5.35;;;3.97;;
43226;SDS011;28839;52.404;9.808;2023-08-31T11:37:59;5.45;;;4.50;;
43226;SDS011;28839;52.404;9.808;2023-08-31T11:44:53;6.05;;;4.28;;
43226;SDS011;28839;52.404;9.808;2023-08-31T11:51:49;6.20;;;4.72;;
43226;SDS011;28839;52.404;9.808;2023-08-31T11:58:43;4.35;;;3.85;;
43226;SDS011;28839;52.404;9.808;2023-08-31T12:05:44;5.47;;;4.15;;
43226;SDS011;28839;52.404;9.808;2023-08-31T12:12:40;5.90;;;3.40;;
43226;SDS011;28839;52.404;9.808;2023-08-31T12:19:35;5.40;;;2.90;;
43226;SDS011;28839;52.404;9.808;2023-08-31T12:26:30;5.00;;;3.40;;
43226;SDS011;28839;52.404;9.808;2023-08-31T12:33:25;5.03;;;2.78;;
43226;SDS011;28839;52.404;9.808;2023-08-31T12:40:19;4.20;;;1.83;;
43226;SDS011;28839;52.404;9.808;2023-08-31T12:47:13;3.87;;;2.17;;
43226;SDS011;28839;52.404;9.808;2023-08-31T12:54:09;4.60;;;1.60;;
43226;SDS011;28839;52.404;9.808;2023-08-31T13:01:02;3.45;;;1.58;;
43226;SDS011;28839;52.404;9.808;2023-08-31T13:07:56;3.37;;;2.03;;
43226;SDS011;28839;52.404;9.808;2023-08-31T13:14:51;2.40;;;1.60;;
43226;SDS011;28839;52.404;9.808;2023-08-31T13:21:45;3.12;;;1.80;;
43226;SDS011;28839;52.404;9.808;2023-08-31T13:28:39;4.53;;;1.73;;
43226;SDS011;28839;52.404;9.808;2023-08-31T13:35:35;4.35;;;1.60;;
43226;SDS011;28839;52.404;9.808;2023-08-31T13:42:32;5.60;;;1.67;;
43226;SDS011;28839;52.404;9.808;2023-08-31T13:49:30;1.92;;;0.90;;
43226;SDS011;28839;52.404;9.808;2023-08-31T13:56:25;1.25;;;0.80;;
43226;SDS011;28839;52.404;9.808;2023-08-31T14:03:19;1.70;;;0.60;;
43226;SDS011;28839;52.404;9.808;2023-08-31T14:10:13;2.93;;;0.70;;
43226;SDS011;28839;52.404;9.808;2023-08-31T14:17:08;1.55;;;0.60;;
43226;SDS011;28839;52.404;9.808;2023-08-31T14:24:02;1.35;;;0.75;;
43226;SDS011;28839;52.404;9.808;2023-08-31T14:30:56;8.10;;;1.23;;
43226;SDS011;28839;52.404;9.808;2023-08-31T14:37:51;1.50;;;0.60;;
43226;SDS011;28839;52.404;9.808;2023-08-31T14:44:45;1.75;;;0.82;;
43226;SDS011;28839;52.404;9.808;2023-08-31T14:51:38;3.33;;;1.10;;
43226;SDS011;28839;52.404;9.808;2023-08-31T14:58:34;2.03;;;0.98;;
43226;SDS011;28839;52.404;9.808;2023-08-31T15:05:28;1.37;;;0.88;;
43226;SDS011;28839;52.404;9.808;2023-08-31T15:12:22;1.58;;;0.90;;
43226;SDS011;28839;52.404;9.808;2023-08-31T15:19:17;2.05;;;0.80;;
43226;SDS011;28839;52.404;9.808;2023-08-31T15:26:11;2.75;;;0.80;;
43226;SDS011;28839;52.404;9.808;2023-08-31T15:33:07;2.85;;;1.00;;
43226;SDS011;28839;52.404;9.808;2023-08-31T15:40:02;2.78;;;0.73;;
43226;SDS011;28839;52.404;9.808;2023-08-31T15:46:56;5.65;;;1.20;;
43226;SDS011;28839;52.404;9.808;2023-08-31T15:53:50;2.85;;;1.02;;
43226;SDS011;28839;52.404;9.808;2023-08-31T16:00:45;3.85;;;1.10;;
43226;SDS011;28839;52.404;9.808;2023-08-31T16:07:39;3.42;;;1.00;;
43226;SDS011;28839;52.404;9.808;2023-08-31T16:14:33;3.67;;;1.00;;
43226;SDS011;28839;52.404;9.808;2023-08-31T16:21:31;4.10;;;2.05;;
43226;SDS011;28839;52.404;9.808;2023-08-31T16:28:24;2.80;;;1.20;;
43226;SDS011;28839;52.404;9.808;2023-08-31T16:35:18;4.57;;;1.33;;
43226;SDS011;28839;52.404;9.808;2023-08-31T16:42:13;5.00;;;1.40;;
43226;SDS011;28839;52.404;9.808;2023-08-31T16:49:07;4.95;;;1.70;;
43226;SDS011;28839;52.404;9.808;2023-08-31T16:56:01;4.80;;;1.80;;
43226;SDS011;28839;52.404;9.808;2023-08-31T17:02:56;4.10;;;1.60;;
43226;SDS011;28839;52.404;9.808;2023-08-31T17:09:50;5.25;;;1.50;;
43226;SDS011;28839;52.404;9.808;2023-08-31T17:16:44;5.80;;;1.70;;
43226;SDS011;28839;52.404;9.808;2023-08-31T17:23:39;3.70;;;1.65;;
43226;SDS011;28839;52.404;9.808;2023-08-31T17:30:33;1.50;;;1.00;;
43226;SDS011;28839;52.404;9.808;2023-08-31T17:37:27;4.55;;;1.35;;
43226;SDS011;28839;52.404;9.808;2023-08-31T17:44:22;3.77;;;1.67;;
43226;SDS011;28839;52.404;9.808;2023-08-31T17:51:17;3.53;;;1.33;;
43226;SDS011;28839;52.404;9.808;2023-08-31T17:58:10;1.93;;;0.97;;
43226;SDS011;28839;52.404;9.808;2023-08-31T18:05:06;2.17;;;1.10;;
43226;SDS011;28839;52.404;9.808;2023-08-31T18:12:00;3.55;;;1.42;;
43226;SDS011;28839;52.404;9.808;2023-08-31T18:18:55;3.42;;;1.00;;
43226;SDS011;28839;52.404;9.808;2023-08-31T18:25:50;2.30;;;0.90;;
43226;SDS011;28839;52.404;9.808;2023-08-31T18:32:44;2.40;;;1.10;;
43226;SDS011;28839;52.404;9.808;2023-08-31T18:39:38;2.78;;;1.20;;
43226;SDS011;28839;52.404;9.808;2023-08-31T18:46:33;3.53;;;1.33;;
43226;SDS011;28839;52.404;9.808;2023-08-31T18:53:27;3.50;;;1.60;;
43226;SDS011;28839;52.404;9.808;2023-08-31T19:00:21;5.17;;;1.40;;
43226;SDS011;28839;52.404;9.808;2023-08-31T19:07:16;3.27;;;1.57;;
43226;SDS011;28839;52.404;9.808;2023-08-31T19:14:10;3.47;;;1.35;;
43226;SDS011;28839;52.404;9.808;2023-08-31T19:21:04;3.83;;;1.37;;
43226;SDS011;28839;52.404;9.808;2023-08-31T19:28:00;3.07;;;1.40;;
43226;SDS011;28839;52.404;9.808;2023-08-31T19:34:54;3.15;;;1.27;;
43226;SDS011;28839;52.404;9.808;2023-08-31T19:41:48;4.33;;;1.50;;
43226;SDS011;28839;52.404;9.808;2023-08-31T19:48:43;4.33;;;2.00;;
43226;SDS011;28839;52.404;9.808;2023-08-31T19:55:37;2.85;;;1.40;;
43226;SDS011;28839;52.404;9.808;2023-08-31T20:02:31;6.80;;;1.53;;
43226;SDS011;28839;52.404;9.808;2023-08-31T20:09:26;3.00;;;1.60;;
43226;SDS011;28839;52.404;9.808;2023-08-31T20:16:20;4.12;;;1.30;;
43226;SDS011;28839;52.404;9.808;2023-08-31T20:23:14;3.23;;;1.60;;
43226;SDS011;28839;52.404;9.808;2023-08-31T20:30:09;3.17;;;1.50;;
43226;SDS011;28839;52.404;9.808;2023-08-31T20:37:04;7.85;;;2.08;;
43226;SDS011;28839;52.404;9.808;2023-08-31T20:44:00;4.37;;;1.52;;
43226;SDS011;28839;52.404;9.808;2023-08-31T20:51:01;5.03;;;1.77;;
43226;SDS011;28839;52.404;9.808;2023-08-31T20:57:56;5.60;;;1.70;;
43226;SDS011;28839;52.404;9.808;2023-08-31T21:04:50;5.28;;;1.90;;
43226;SDS011;28839;52.404;9.808;2023-08-31T21:11:45;2.93;;;2.03;;
43226;SDS011;28839;52.404;9.808;2023-08-31T21:18:40;5.22;;;2.70;;
43226;SDS011;28839;52.404;9.808;2023-08-31T21:25:34;4.77;;;3.53;;
43226;SDS011;28839;52.404;9.808;2023-08-31T21:32:31;4.33;;;3.43;;
43226;SDS011;28839;52.404;9.808;2023-08-31T21:39:25;7.82;;;4.00;;
43226;SDS011;28839;52.404;9.808;2023-08-31T21:46:19;6.13;;;3.40;;
43226;SDS011;28839;52.404;9.808;2023-08-31T21:53:15;4.53;;;3.95;;
43226;SDS011;28839;52.404;9.808;2023-08-31T22:00:09;7.87;;;4.05;;
43226;SDS011;28839;52.404;9.808;2023-08-31T22:07:06;8.57;;;4.45;;
43226;SDS011;28839;52.404;9.808;2023-08-31T22:14:02;7.20;;;5.37;;
43226;SDS011;28839;52.404;9.808;2023-08-31T22:20:57;6.05;;;5.45;;
43226;SDS011;28839;52.404;9.808;2023-08-31T22:27:51;7.18;;;6.47;;
43226;SDS011;28839;52.404;9.808;2023-08-31T22:34:47;7.68;;;6.65;;
43226;SDS011;28839;52.404;9.808;2023-08-31T22:41:41;10.57;;;7.03;;
43226;SDS011;28839;52.404;9.808;2023-08-31T22:48:38;8.23;;;7.35;;
43226;SDS011;28839;52.404;9.808;2023-08-31T22:55:33;9.30;;;8.40;;
43226;SDS011;28839;52.404;9.808;2023-08-31T23:02:27;10.15;;;8.18;;
43226;SDS011;28839;52.404;9.808;2023-08-31T23:09:21;10.00;;;8.27;;
43226;SDS011;28839;52.404;9.808;2023-08-31T23:16:16;10.18;;;8.65;;
43226;SDS011;28839;52.404;9.808;2023-08-31T23:23:10;9.98;;;8.05;;
43226;SDS011;28839;52.404;9.808;2023-08-31T23:30:04;9.37;;;8.30;;
43226;SDS011;28839;52.404;9.808;2023-08-31T23:37:00;10.70;;;8.50;;
43226;SDS011;28839;52.404;9.808;2023-08-31T23:43:54;10.27;;;9.05;;
43226;SDS011;28839;52.404;9.808;2023-08-31T23:50:48;9.37;;;7.77;;
43226;SDS011;28839;52.404;9.808;2023-08-31T23:57:43;10.60;;;8.45;;
